Flight Track Log - Related Links

Times and Time Zones

All times are in EDT time to prevent confusion due to time zone crossing. See the TGW275 flight status page for this flight to view local times or setup timezone preferences in your user account.

Time Position Orientation Groundspeed Altitude Reporting Facility
EDT Latitude Longitude Course Direction KTS MPH feet Rate Location/Type
Thu 11:45:28 PM -30.3122 153.1172 221° Southwest 19,000  Level Aus ATC (Calculated)
Thu 11:47:06 PM -30.4054 153.0237 224° Southwest 258 297 4,800 -6,610 Descending Aus ATC (RADAR)
Thu 11:47:26 PM -30.4218 153.0053 224° Southwest 247 284 6,000 3,800 Climbing Aus ATC (RADAR)
Thu 11:48:06 PM -30.4554 152.9668 225° Southwest 252 290 8,600 3,221 Climbing Aus ATC (RADAR)
Thu 11:49:01 PM -30.5012 152.9151 224° Southwest 252 290 11,100 1,933 Climbing Aus ATC (RADAR)
Thu 11:49:36 PM -30.5362 152.8754 224° Southwest 296 341 11,500 2,106 Climbing Aus ATC (RADAR)
Thu 11:50:35 PM -30.6018 152.8003 225° Southwest 326 375 14,400 2,571 Climbing Aus ATC (RADAR)
Thu 11:52:10 PM -30.7086 152.6786 224° Southwest 343 395 18,100 2,291 Climbing Aus ATC (RADAR)
Thu 11:52:25 PM -30.7258 152.6586 225° Southwest 346 398 18,600 1,964 Climbing Aus ATC (RADAR)
Thu 11:53:05 PM -30.7731 152.6044 225° Southwest 357 411 19,900 1,958 Climbing Aus ATC (RADAR)
Thu 11:54:00 PM -30.8393 152.5284 225° Southwest 367 422 21,700 2,000 Climbing Aus ATC (RADAR)
Thu 11:54:35 PM -30.8819 152.4796 225° Southwest 368 423 22,900 2,047 Climbing Aus ATC (RADAR)
Thu 11:55:25 PM -30.9434 152.4100 224° Southwest 371 427 24,600 1,600 Climbing Aus ATC (RADAR)
Thu 11:57:05 PM -31.0683 152.2668 224° Southwest 382 440 26,900 1,409 Climbing Aus ATC (RADAR)
Thu 11:57:20 PM -31.0873 152.2447 225° Southwest 385 443 27,300 1,440 Climbing Aus ATC (RADAR)
Thu 11:57:55 PM -31.1312 152.1940 225° Southwest 384 442 28,100 1,333 Climbing Aus ATC (RADAR)
Thu 11:58:59 PM -31.2130 152.1000 225° Southwest 390 449 29,500 1,477 Climbing FlightAware ADS-B
Thu 11:59:00 PM -31.2147 152.0983 224° Southwest 389 448 29,700 857 Climbing Aus ATC (RADAR)
Thu 11:59:34 PM -31.2540 152.0530 224° Southwest 388 447 30,000 857 Climbing FlightAware ADS-B
Thu 11:59:35 PM -31.2595 152.0459 225° Southwest 393 452 30,200  Climbing Aus ATC (RADAR)
Fri 12:00:09 AM -31.3030 151.9960 225° Southwest 388 447 30,000 -174 Descending FlightAware ADS-B
Fri 12:00:44 AM -31.3490 151.9430 225° Southwest 391 450 30,000  Level FlightAware ADS-B
Fri 12:01:19 AM -31.3940 151.8900 225° Southwest 396 456 30,000  Level FlightAware ADS-B
Fri 12:02:00 AM -31.4530 151.8320 220° Southwest 399 459 30,000  Level FlightAware ADS-B
Fri 12:02:34 AM -31.5040 151.7890 216° Southwest 405 466 30,000 94 Level FlightAware ADS-B
Fri 12:03:04 AM -31.5515 151.7473 216° Southwest 406 467 30,100  Climbing Aus ATC (RADAR)
Fri 12:03:14 AM -31.5650 151.7350 216° Southwest 404 465 30,000 -150 Descending FlightAware ADS-B
Fri 12:03:44 AM -31.6090 151.6970 216° Southwest 400 460 30,000  Level FlightAware ADS-B
Fri 12:04:21 AM -31.6620 151.6500 217° Southwest 397 457 30,000 -72 Level FlightAware ADS-B
Fri 12:05:07 AM -31.7300 151.5920 216° Southwest 397 457 29,900 -79 Descending FlightAware ADS-B
Fri 12:05:37 AM -31.7740 151.5530 217° Southwest 396 456 29,900  Level FlightAware ADS-B
Fri 12:06:14 AM -31.8250 151.5080 217° Southwest 398 458 29,900  Level FlightAware ADS-B
Fri 12:06:49 AM -31.8800 151.4600 217° Southwest 400 460 29,900 86 Level FlightAware ADS-B
Fri 12:07:24 AM -31.9330 151.4130 217° Southwest 400 460 30,000 87 Climbing FlightAware ADS-B
Fri 12:07:58 AM -31.9830 151.3700 216° Southwest 401 461 30,000  Level FlightAware ADS-B
Fri 12:08:34 AM -32.0360 151.3230 217° Southwest 401 461 30,000  Level FlightAware ADS-B
Fri 12:09:09 AM -32.0870 151.2780 217° Southwest 403 464 30,000  Level FlightAware ADS-B
Fri 12:09:52 AM -32.1530 151.2210 216° Southwest 402 463 30,000 -414 Level FlightAware ADS-B
Fri 12:10:07 AM -32.1800 151.2050 207° Southwest 408 470 29,600 -1,500 Descending FlightAware ADS-B
Fri 12:10:28 AM -32.2190 151.1960 191° South 409 471 29,100 -1,846 Descending FlightAware ADS-B
Fri 12:10:59 AM -32.2730 151.1890 186° South 400 460 28,000 -2,282 Descending FlightAware ADS-B
Fri 12:11:39 AM -32.3500 151.1780 187° South 390 449 26,400 -2,143 Descending FlightAware ADS-B
Fri 12:12:09 AM -32.4030 151.1700 187° South 375 432 25,500 -1,652 Descending FlightAware ADS-B
Fri 12:12:48 AM -32.4702 151.1604 187° South 358 412 24,500 -1,800 Descending Aus ATC (RADAR)
Fri 12:12:49 AM -32.4700 151.1600 187° South 359 413 24,300 -2,323 Descending FlightAware ADS-B
Fri 12:13:19 AM -32.5140 151.1540 187° South 356 410 23,300 -1,941 Descending FlightAware ADS-B
Fri 12:13:23 AM -32.5279 151.1520 187° South 352 405 23,200 -1,935 Descending Aus ATC (RADAR)
Fri 12:13:50 AM -32.5724 151.1451 187° South 347 399 22,300 -1,579 Descending FlightAware ADS-B
Fri 12:14:20 AM -32.6144 151.1391 187° South 341 392 21,700 -1,692 Descending Aus ATC (RADAR)
Fri 12:14:29 AM -32.6300 151.1360 187° South 323 372 21,200 -1,959 Descending FlightAware ADS-B
Fri 12:15:09 AM -32.6900 151.1270 187° South 322 371 20,100 -1,629 Descending FlightAware ADS-B
Fri 12:15:39 AM -32.7300 151.1210 187° South 321 369 19,300 -1,662 Descending FlightAware ADS-B
Fri 12:16:14 AM -32.7850 151.1130 187° South 311 358 18,300 -1,703 Descending FlightAware ADS-B
Fri 12:16:53 AM -32.8430 151.1040 187° South 312 359 17,200 -1,680 Descending FlightAware ADS-B
Fri 12:17:29 AM -32.8930 151.0960 188° South 308 354 16,200 -1,636 Descending FlightAware ADS-B
Fri 12:17:59 AM -32.9360 151.0900 187° South 305 351 15,400 -1,658 Descending FlightAware ADS-B
Fri 12:18:45 AM -33.0025 151.0800 187° South 301 346 14,100 -1,658 Descending FlightAware ADS-B
Fri 12:19:15 AM -33.0438 151.0737 187° South 297 342 13,300 -1,600 Descending FlightAware ADS-B
Fri 12:19:45 AM -33.0829 151.0678 187° South 300 345 12,500 -1,543 Descending FlightAware ADS-B
Fri 12:20:25 AM -33.1390 151.0593 187° South 292 336 11,500 -1,629 Descending FlightAware ADS-B
Fri 12:20:55 AM -33.1793 151.0531 187° South 291 335 10,600 -1,371 Descending FlightAware ADS-B
Fri 12:21:35 AM -33.2296 151.0454 187° South 264 304 9,900 -712 Descending FlightAware ADS-B
Fri 12:21:54 AM -33.2525 151.0471 177° South 261 300 9,900 -789 Level FlightAware ADS-B
Fri 12:22:13 AM -33.2754 151.0519 170° South 263 303 9,400 -1,231 Descending FlightAware ADS-B
Fri 12:22:33 AM -33.2996 151.0567 171° South 258 297 9,100 -1,385 Descending FlightAware ADS-B
Fri 12:22:52 AM -33.3219 151.0609 171° South 261 300 8,500 -1,364 Descending FlightAware ADS-B
Fri 12:23:17 AM -33.3523 151.0666 171° South 265 305 8,100 -857 Descending FlightAware ADS-B
Fri 12:23:48 AM -33.3830 151.0720 172° South 265 305 7,700 -1,067 Descending FlightAware ADS-B
Fri 12:24:02 AM -33.4050 151.0743 175° South 266 306 7,300 -1,273 Descending FlightAware ADS-B
Fri 12:24:21 AM -33.4301 151.0718 185° South 262 302 7,000 -857 Descending FlightAware ADS-B
Fri 12:24:44 AM -33.4582 151.0686 186° South 260 299 6,700 -900 Descending FlightAware ADS-B
Fri 12:25:01 AM -33.4785 151.0672 183° South 264 304 6,400 -968 Descending FlightAware ADS-B
Fri 12:25:15 AM -33.4956 151.0707 170° South 264 304 6,200 -632 Descending FlightAware ADS-B
Fri 12:25:20 AM -33.5017 151.0723 167° South 276 318 6,200 -462 Level FlightAware ADS-B
Fri 12:25:41 AM -33.5222 151.0780 167° South 280 322 6,000 -533 Descending FlightAware ADS-B
Fri 12:26:05 AM -33.5584 151.0878 167° South 279 321 5,800 -409 Descending FlightAware ADS-B
Fri 12:26:25 AM -33.5803 151.0933 168° South 273 314 5,700 -600 Descending FlightAware ADS-B
Fri 12:26:45 AM -33.6086 151.1003 168° South 267 307 5,400 -1,459 Descending FlightAware ADS-B
Fri 12:27:02 AM -33.6271 151.1050 168° South 269 310 4,800 -1,733 Descending FlightAware ADS-B
Fri 12:27:30 AM -33.6635 151.1143 168° South 267 307 4,100 -1,200 Descending FlightAware ADS-B
Fri 12:27:52 AM -33.6862 151.1202 168° South 258 297 3,800 -429 Descending FlightAware ADS-B
Fri 12:28:12 AM -33.7099 151.1264 168° South 242 278 3,800 -293 Level FlightAware ADS-B
Fri 12:28:33 AM -33.7329 151.1323 168° South 231 266 3,600 -585 Descending FlightAware ADS-B
Fri 12:28:53 AM -33.7548 151.1379 168° South 220 253 3,400 -600 Descending FlightAware ADS-B
Fri 12:29:13 AM -33.7734 151.1426 168° South 198 228 3,200 -500 Descending FlightAware ADS-B (YSSY / SYD)
Fri 12:29:29 AM -33.7882 151.1464 168° South 198 228 3,100 -667 Descending FlightAware ADS-B
Fri 12:29:49 AM -33.8059 151.1511 168° South 193 222 2,800 -973 Descending FlightAware ADS-B
Fri 12:30:06 AM -33.8208 151.1550 168° South 186 214 2,500 -1,143 Descending FlightAware ADS-B (YSSY / SYD)
Fri 12:30:31 AM -33.8429 151.1606 168° South 190 219 2,000 -1,043 Descending FlightAware ADS-B
Fri 12:30:52 AM -33.8594 151.1649 168° South 175 201 1,700 -878 Descending FlightAware ADS-B
Fri 12:31:12 AM -33.8748 151.1689 168° South 165 190 1,400 -818 Descending FlightAware ADS-B
Fri 12:31:36 AM -33.8908 151.1730 168° South 137 158 1,100 -698 Descending FlightAware ADS-B (YSSY / SYD)
Fri 12:31:55 AM -33.9013 151.1758 168° South 130 150 900 -789 Descending FlightAware ADS-B
Fri 12:32:14 AM -33.9138 151.1790 168° South 130 150 600 -774 Descending FlightAware ADS-B
Fri 12:32:26 AM -33.9200 151.1806 168° South 120 138 500 -600 Descending FlightAware ADS-B (YSSY / SYD)
Fri 12:32:44 AM -33.9312 151.1835 168° South 130 150 300 -667 Descending FlightAware ADS-B
Fri 12:33:06 AM -33.9440 151.1868 168° South 131 151 -818 Descending FlightAware ADS-B (YSSY / SYD)
Fri 12:33:35 AM -33.9612 151.1913 168° South 115 132  Level FlightAware ADS-B (YSSY / SYD)

Login

Don't have an account? Register now (free) for customized features, flight alerts, and more!